createdAt,value
2019-05-10T00:00:34.587Z,4.30
2019-05-10T00:03:21.186Z,4.90
2019-05-10T00:06:07.820Z,5.30
2019-05-10T00:08:44.901Z,5.20
2019-05-10T00:11:29.052Z,4.20
2019-05-10T00:14:01.832Z,5.53
2019-05-10T00:16:30.486Z,4.30
2019-05-10T00:18:58.976Z,4.00
2019-05-10T00:21:27.522Z,5.30
2019-05-10T00:23:56.004Z,4.70
2019-05-10T00:26:24.452Z,4.07
2019-05-10T00:28:54.498Z,4.70
2019-05-10T00:31:22.938Z,4.67
2019-05-10T00:33:51.353Z,5.03
2019-05-10T00:36:20.600Z,4.63
2019-05-10T00:38:49.047Z,3.87
2019-05-10T00:41:17.504Z,4.70
2019-05-10T00:43:45.920Z,4.80
2019-05-10T00:46:14.367Z,4.20
2019-05-10T00:48:42.778Z,5.07
2019-05-10T00:51:11.222Z,4.80
2019-05-10T00:53:39.628Z,3.93
2019-05-10T00:56:08.150Z,3.73
2019-05-10T00:58:36.638Z,4.27
2019-05-10T01:01:05.157Z,4.00
2019-05-10T01:03:33.659Z,4.37
2019-05-10T01:06:02.224Z,4.60
2019-05-10T01:08:30.780Z,4.27
2019-05-10T01:10:59.183Z,4.60
2019-05-10T01:13:27.636Z,4.50
2019-05-10T01:15:56.053Z,4.37
2019-05-10T01:18:24.504Z,4.73
2019-05-10T01:20:52.952Z,4.93
2019-05-10T01:23:21.369Z,4.23
2019-05-10T01:25:49.876Z,4.77
2019-05-10T01:28:18.320Z,4.70
2019-05-10T01:30:46.742Z,4.70
2019-05-10T01:33:15.270Z,5.40
2019-05-10T01:35:43.652Z,5.13
2019-05-10T01:38:12.072Z,5.03
2019-05-10T01:40:40.532Z,10.37
2019-05-10T01:43:08.976Z,12.10
2019-05-10T01:45:38.549Z,5.90
2019-05-10T01:48:07.072Z,4.53
2019-05-10T01:50:35.549Z,5.40
2019-05-10T01:53:04.012Z,4.60
2019-05-10T01:55:32.472Z,4.40
2019-05-10T01:58:00.924Z,4.50
2019-05-10T02:00:29.338Z,5.07
2019-05-10T02:02:57.856Z,4.27
2019-05-10T02:05:26.280Z,11.73
2019-05-10T02:07:54.756Z,6.90
2019-05-10T02:10:23.199Z,3.40
2019-05-10T02:12:51.760Z,4.60
2019-05-10T02:15:20.222Z,4.23
2019-05-10T02:17:48.658Z,4.87
2019-05-10T02:20:17.088Z,9.97
2019-05-10T02:22:45.502Z,5.90
2019-05-10T02:25:14.182Z,4.63
2019-05-10T02:27:42.593Z,4.50
2019-05-10T02:30:11.480Z,4.10
2019-05-10T02:32:39.920Z,4.60
2019-05-10T02:35:08.525Z,3.87
2019-05-10T02:37:36.965Z,4.70
2019-05-10T02:40:06.313Z,4.40
2019-05-10T02:42:34.793Z,3.93
2019-05-10T02:45:05.343Z,4.70
2019-05-10T02:47:33.761Z,5.33
2019-05-10T02:50:02.331Z,3.83
2019-05-10T02:52:31.055Z,4.90
2019-05-10T02:55:00.090Z,4.20
2019-05-10T02:57:28.690Z,4.77
2019-05-10T02:59:59.282Z,5.27
2019-05-10T03:02:28.741Z,9.00
2019-05-10T03:04:59.793Z,5.60
2019-05-10T03:07:29.942Z,5.30
2019-05-10T03:10:00.095Z,5.10
2019-05-10T03:12:29.058Z,4.00
2019-05-10T03:14:59.016Z,4.93
2019-05-10T03:17:28.186Z,4.33
2019-05-10T03:19:57.080Z,4.70
2019-05-10T03:22:26.218Z,4.93
2019-05-10T03:24:54.767Z,4.37
2019-05-10T03:27:23.270Z,4.30
2019-05-10T03:29:52.450Z,5.13
2019-05-10T03:32:20.972Z,5.10
2019-05-10T03:34:49.523Z,4.13
2019-05-10T03:37:18.382Z,4.10
2019-05-10T03:39:47.027Z,4.10
2019-05-10T03:42:15.646Z,6.00
2019-05-10T03:44:44.358Z,5.53
2019-05-10T03:47:12.882Z,5.30
2019-05-10T03:49:41.289Z,6.23
2019-05-10T03:52:09.709Z,4.90
2019-05-10T03:54:38.155Z,5.07
2019-05-10T03:57:13.999Z,5.07
2019-05-10T03:59:36.767Z,4.90
2019-05-10T04:02:05.209Z,5.17
2019-05-10T04:04:33.706Z,5.87
2019-05-10T04:07:02.143Z,5.40
2019-05-10T04:09:30.584Z,3.80
2019-05-10T04:11:59.007Z,5.20
2019-05-10T04:14:27.565Z,5.00
2019-05-10T04:16:56.006Z,4.90
2019-05-10T04:19:24.472Z,5.23
2019-05-10T04:21:52.949Z,5.60
2019-05-10T04:24:21.559Z,5.90
2019-05-10T04:26:49.973Z,5.03
2019-05-10T04:29:18.429Z,5.10
2019-05-10T04:31:46.840Z,4.73
2019-05-10T04:34:16.817Z,5.20
2019-05-10T04:36:45.221Z,4.37
2019-05-10T04:39:13.683Z,6.00
2019-05-10T04:41:42.151Z,5.17
2019-05-10T04:44:10.661Z,6.53
2019-05-10T04:46:39.074Z,4.50
2019-05-10T04:49:07.556Z,5.63
2019-05-10T04:51:36.009Z,5.43
2019-05-10T04:54:04.634Z,5.10
2019-05-10T04:56:33.047Z,5.50
2019-05-10T04:59:01.553Z,5.00
2019-05-10T05:01:38.005Z,5.23
2019-05-10T05:04:06.618Z,5.67
2019-05-10T05:06:35.064Z,5.60
2019-05-10T05:09:05.126Z,5.23
2019-05-10T05:11:33.578Z,5.93
2019-05-10T05:14:02.004Z,6.20
2019-05-10T05:16:30.579Z,4.37
2019-05-10T05:18:59.044Z,5.33
2019-05-10T05:21:27.462Z,5.37
2019-05-10T05:23:55.940Z,6.33
2019-05-10T05:26:24.749Z,5.10
2019-05-10T05:28:58.952Z,5.50
2019-05-10T05:31:31.184Z,5.13
2019-05-10T05:34:04.781Z,5.70
2019-05-10T05:36:30.477Z,6.30
2019-05-10T05:39:01.855Z,9.60
2019-05-10T05:41:32.616Z,5.80
2019-05-10T05:44:06.085Z,5.70
2019-05-10T05:46:34.878Z,7.00
2019-05-10T05:49:03.836Z,5.80
2019-05-10T05:51:35.196Z,6.33
2019-05-10T05:54:07.119Z,5.40
2019-05-10T05:56:37.103Z,5.83
2019-05-10T05:59:08.787Z,5.90
2019-05-10T06:01:37.516Z,7.20
2019-05-10T06:04:12.796Z,6.83
2019-05-10T06:06:44.535Z,6.60
2019-05-10T06:09:18.815Z,8.03
2019-05-10T06:11:52.416Z,6.77
2019-05-10T06:14:25.509Z,6.93
2019-05-10T06:16:58.833Z,6.37
2019-05-10T06:19:30.624Z,7.57
2019-05-10T06:21:58.035Z,5.47
2019-05-10T06:24:27.608Z,5.73
2019-05-10T06:27:03.466Z,5.73
2019-05-10T06:29:35.890Z,5.77
2019-05-10T06:32:09.094Z,5.73
2019-05-10T06:34:40.290Z,6.33
2019-05-10T06:37:09.096Z,6.43
2019-05-10T06:39:37.579Z,6.23
2019-05-10T06:42:09.752Z,5.70
2019-05-10T06:44:40.962Z,6.53
2019-05-10T06:47:11.303Z,6.87
2019-05-10T06:49:41.680Z,7.27
2019-05-10T06:52:11.509Z,7.60
2019-05-10T06:54:50.483Z,8.23
2019-05-10T06:57:20.691Z,7.00
2019-05-10T06:59:57.027Z,7.43
2019-05-10T07:02:32.223Z,7.30
2019-05-10T07:05:02.490Z,6.60
2019-05-10T07:07:44.015Z,6.90
2019-05-10T07:10:18.637Z,6.77
2019-05-10T07:12:45.474Z,5.50
2019-05-10T07:15:20.005Z,6.37
2019-05-10T07:17:52.704Z,6.70
2019-05-10T07:20:29.484Z,7.43
2019-05-10T07:23:06.281Z,6.27
2019-05-10T07:25:37.633Z,6.07
2019-05-10T07:28:15.637Z,5.50
2019-05-10T07:30:43.879Z,5.77
2019-05-10T07:33:16.740Z,5.63
2019-05-10T07:35:48.604Z,5.03
2019-05-10T07:38:17.054Z,5.03
2019-05-10T07:40:45.465Z,6.40
2019-05-10T07:43:26.311Z,5.20
2019-05-10T07:45:58.712Z,6.00
2019-05-10T07:48:27.197Z,5.90
2019-05-10T07:50:59.129Z,5.90
2019-05-10T07:53:30.269Z,5.70
2019-05-10T07:55:59.838Z,7.23
2019-05-10T07:58:28.211Z,5.57
2019-05-10T08:01:00.288Z,5.70
2019-05-10T08:03:44.267Z,8.10
2019-05-10T08:06:01.903Z,5.87
2019-05-10T08:08:29.678Z,5.60
2019-05-10T08:11:03.837Z,5.73
2019-05-10T08:13:39.275Z,6.50
2019-05-10T08:16:18.887Z,5.60
2019-05-10T08:18:45.272Z,6.00
2019-05-10T08:21:22.481Z,6.07
2019-05-10T08:23:54.046Z,6.03
2019-05-10T08:26:25.581Z,5.50
2019-05-10T08:28:54.001Z,5.57
2019-05-10T08:31:25.941Z,6.70
2019-05-10T08:33:58.815Z,7.50
2019-05-10T08:36:26.903Z,6.70
2019-05-10T08:39:04.971Z,6.73
2019-05-10T08:41:25.500Z,7.53
2019-05-10T08:43:56.857Z,8.03
2019-05-10T08:46:40.045Z,7.80
2019-05-10T08:49:04.125Z,6.70
2019-05-10T08:51:43.792Z,7.07
2019-05-10T08:54:12.046Z,7.40
2019-05-10T08:56:46.773Z,6.67
2019-05-10T08:59:23.713Z,6.40
2019-05-10T09:01:53.876Z,6.60
2019-05-10T09:04:33.490Z,6.10
2019-05-10T09:07:03.683Z,6.40
2019-05-10T09:09:45.465Z,6.30
2019-05-10T09:12:09.441Z,6.57
2019-05-10T09:14:44.206Z,5.40
2019-05-10T09:17:23.461Z,5.93
2019-05-10T09:19:51.792Z,5.97
2019-05-10T09:22:33.852Z,6.50
2019-05-10T09:24:59.200Z,6.07
2019-05-10T09:27:33.409Z,6.57
2019-05-10T09:30:08.252Z,6.90
2019-05-10T09:32:34.015Z,8.00
2019-05-10T09:35:07.584Z,8.30
2019-05-10T09:37:36.597Z,8.83
2019-05-10T09:40:13.053Z,7.27
2019-05-10T09:42:43.852Z,8.13
2019-05-10T09:45:16.755Z,8.60
2019-05-10T09:47:53.039Z,8.10
2019-05-10T09:50:30.405Z,8.40
2019-05-10T09:53:01.016Z,8.50
2019-05-10T09:55:33.301Z,7.80
2019-05-10T09:58:08.497Z,8.50
2019-05-10T10:00:38.247Z,8.37
2019-05-10T10:03:08.171Z,8.00
2019-05-10T10:05:40.316Z,9.33
2019-05-10T10:08:11.011Z,8.37
2019-05-10T10:10:43.852Z,9.23
2019-05-10T10:13:36.007Z,7.73
2019-05-10T10:15:52.451Z,6.70
2019-05-10T10:18:28.252Z,8.20
2019-05-10T10:21:00.600Z,7.63
2019-05-10T10:23:34.875Z,8.13
2019-05-10T10:26:12.427Z,5.57
2019-05-10T10:28:40.630Z,7.33
2019-05-10T10:31:25.097Z,7.10
2019-05-10T10:33:42.954Z,6.77
2019-05-10T10:36:11.040Z,5.63
2019-05-10T10:38:49.221Z,5.80
2019-05-10T10:41:26.153Z,5.47
2019-05-10T10:43:58.120Z,5.43
2019-05-10T10:46:28.084Z,6.40
2019-05-10T10:48:59.207Z,6.77
2019-05-10T10:51:34.130Z,6.63
2019-05-10T10:54:07.440Z,7.40
2019-05-10T10:56:40.695Z,6.80
2019-05-10T10:59:18.326Z,6.80
2019-05-10T11:01:56.693Z,5.57
2019-05-10T11:04:25.757Z,8.27
2019-05-10T11:07:09.874Z,7.53
2019-05-10T11:09:31.188Z,6.93
2019-05-10T11:12:04.911Z,7.77
2019-05-10T11:14:43.425Z,6.87
2019-05-10T11:17:11.182Z,7.60
2019-05-10T11:19:41.750Z,6.70
2019-05-10T11:22:10.989Z,7.13
2019-05-10T11:24:40.309Z,6.43
2019-05-10T11:27:17.082Z,7.07
2019-05-10T11:29:54.423Z,7.60
2019-05-10T11:32:22.606Z,7.80
2019-05-10T11:34:55.832Z,6.57
2019-05-10T11:37:30.891Z,7.60
2019-05-10T11:39:54.509Z,8.60
2019-05-10T11:42:24.388Z,6.90
2019-05-10T11:44:56.281Z,7.33
2019-05-10T11:47:27.202Z,8.57
2019-05-10T11:49:54.870Z,6.60
2019-05-10T11:52:29.243Z,6.80
2019-05-10T11:55:01.312Z,5.10
2019-05-10T11:57:34.031Z,5.90
2019-05-10T12:00:14.196Z,5.63
2019-05-10T12:03:01.068Z,6.67
2019-05-10T12:05:20.517Z,6.50
2019-05-10T12:07:54.355Z,7.27
2019-05-10T12:10:25.956Z,5.87
2019-05-10T12:13:10.884Z,5.10
2019-05-10T12:15:32.392Z,5.20
2019-05-10T12:18:04.974Z,6.13
2019-05-10T12:20:54.004Z,6.17
2019-05-10T12:23:22.610Z,6.67
2019-05-10T12:26:30.550Z,6.47
2019-05-10T12:28:28.557Z,5.90
2019-05-10T12:30:55.749Z,5.80
2019-05-10T12:33:31.751Z,6.30
2019-05-10T12:36:04.314Z,7.63
2019-05-10T12:38:38.537Z,7.50
2019-05-10T12:41:11.760Z,7.27
2019-05-10T12:43:43.404Z,6.60
2019-05-10T12:46:10.555Z,5.73
2019-05-10T12:48:42.613Z,5.80
2019-05-10T12:51:16.320Z,6.17
2019-05-10T12:53:49.765Z,8.10
2019-05-10T12:56:22.313Z,16.33
2019-05-10T12:58:57.694Z,5.50
2019-05-10T13:01:31.805Z,6.37
2019-05-10T13:04:13.384Z,5.37
2019-05-10T13:06:37.088Z,6.87
2019-05-10T13:09:11.253Z,5.87
2019-05-10T13:11:40.006Z,6.37
2019-05-10T13:14:09.670Z,5.63
2019-05-10T13:16:39.849Z,4.90
2019-05-10T13:19:14.086Z,5.37
2019-05-10T13:21:47.100Z,6.00
2019-05-10T13:24:19.103Z,6.63
2019-05-10T13:26:50.230Z,5.13
2019-05-10T13:29:18.955Z,6.00
2019-05-10T13:31:49.759Z,5.10
2019-05-10T13:34:24.308Z,5.67
2019-05-10T13:36:55.909Z,8.10
2019-05-10T13:39:29.579Z,5.57
2019-05-10T13:42:04.957Z,4.73
2019-05-10T13:44:36.972Z,4.23
2019-05-10T13:47:05.379Z,5.00
2019-05-10T13:49:33.953Z,7.03
2019-05-10T13:52:04.980Z,8.00
2019-05-10T13:54:38.215Z,5.73
2019-05-10T13:57:06.743Z,5.40
2019-05-10T13:59:35.940Z,5.20
2019-05-10T14:02:06.179Z,5.13
2019-05-10T14:04:40.189Z,5.20
2019-05-10T14:07:13.381Z,5.00
2019-05-10T14:09:42.369Z,6.80
2019-05-10T14:12:16.192Z,6.00
2019-05-10T14:14:42.309Z,5.80
2019-05-10T14:17:15.453Z,5.57
2019-05-10T14:19:48.650Z,5.63
2019-05-10T14:22:19.845Z,5.93
2019-05-10T14:24:53.253Z,5.63
2019-05-10T14:27:19.314Z,6.17
2019-05-10T14:29:51.015Z,8.20
2019-05-10T14:32:23.460Z,6.20
2019-05-10T14:34:52.009Z,6.03
2019-05-10T14:37:21.683Z,5.80
2019-05-10T14:39:54.042Z,7.67
2019-05-10T14:42:31.266Z,6.03
2019-05-10T14:45:00.698Z,9.33
2019-05-10T14:47:32.751Z,21.67
2019-05-10T14:50:06.168Z,7.40
2019-05-10T14:52:31.440Z,7.47
2019-05-10T14:55:01.591Z,6.60
2019-05-10T14:57:33.921Z,5.30
2019-05-10T15:00:10.543Z,6.00
2019-05-10T15:02:42.962Z,6.60
2019-05-10T15:05:18.107Z,5.90
2019-05-10T15:07:51.217Z,5.93
2019-05-10T15:10:24.313Z,4.47
2019-05-10T15:12:57.529Z,6.17
2019-05-10T15:15:31.048Z,6.20
2019-05-10T15:18:02.420Z,5.97
2019-05-10T15:20:28.386Z,5.67
2019-05-10T15:22:59.302Z,4.90
2019-05-10T15:25:34.066Z,4.90
2019-05-10T15:28:00.148Z,5.30
2019-05-10T15:30:28.509Z,4.23
2019-05-10T15:33:00.074Z,4.37
2019-05-10T15:35:33.368Z,5.20
2019-05-10T15:37:58.797Z,5.17
2019-05-10T15:40:28.213Z,4.13
2019-05-10T15:43:03.018Z,4.03
2019-05-10T15:45:36.581Z,4.47
2019-05-10T15:48:09.652Z,4.77
2019-05-10T15:50:41.196Z,5.53
2019-05-10T15:53:09.422Z,4.53
2019-05-10T15:55:38.988Z,3.70
2019-05-10T15:58:11.941Z,4.80
2019-05-10T16:00:41.567Z,19.37
2019-05-10T16:03:10.349Z,6.10
2019-05-10T16:05:43.746Z,4.87
2019-05-10T16:08:09.115Z,4.37
2019-05-10T16:10:39.474Z,4.20
2019-05-10T16:13:07.798Z,4.20
2019-05-10T16:15:36.341Z,4.17
2019-05-10T16:18:05.072Z,5.03
2019-05-10T16:20:37.134Z,5.33
2019-05-10T16:23:08.915Z,5.20
2019-05-10T16:25:41.837Z,4.20
2019-05-10T16:28:04.175Z,4.80
2019-05-10T16:30:32.580Z,4.90
2019-05-10T16:33:01.140Z,4.60
2019-05-10T16:35:38.461Z,4.90
2019-05-10T16:37:59.778Z,4.70
2019-05-10T16:40:28.325Z,3.90
2019-05-10T16:42:56.875Z,4.53
2019-05-10T16:45:25.324Z,4.57
2019-05-10T16:47:53.837Z,4.97
2019-05-10T16:50:25.974Z,4.07
2019-05-10T16:52:52.585Z,4.90
2019-05-10T16:55:21.707Z,4.40
2019-05-10T16:57:50.227Z,4.27
2019-05-10T17:00:19.101Z,5.37
2019-05-10T17:02:47.541Z,6.50
2019-05-10T17:05:17.416Z,7.97
2019-05-10T17:07:46.264Z,7.67
2019-05-10T17:10:14.756Z,6.60
2019-05-10T17:12:43.214Z,7.23
2019-05-10T17:15:11.874Z,7.37
2019-05-10T17:17:40.347Z,7.43
2019-05-10T17:20:14.180Z,7.70
2019-05-10T17:22:39.887Z,6.87
2019-05-10T17:25:09.560Z,7.90
2019-05-10T17:27:38.999Z,6.87
2019-05-10T17:30:08.411Z,12.97
2019-05-10T17:32:36.842Z,8.90
2019-05-10T17:35:08.493Z,6.93
2019-05-10T17:37:37.486Z,6.60
2019-05-10T17:40:10.250Z,6.53
2019-05-10T17:42:41.174Z,5.70
2019-05-10T17:45:08.801Z,5.80
2019-05-10T17:47:37.378Z,5.93
2019-05-10T17:50:07.251Z,6.07
2019-05-10T17:52:35.699Z,6.20
2019-05-10T17:55:11.034Z,6.33
2019-05-10T17:57:37.398Z,7.50
2019-05-10T18:00:08.071Z,6.50
2019-05-10T18:02:36.805Z,5.60
2019-05-10T18:05:07.729Z,8.37
2019-05-10T18:07:36.019Z,7.97
2019-05-10T18:10:05.391Z,6.97
2019-05-10T18:12:33.860Z,8.40
2019-05-10T18:15:04.881Z,6.17
2019-05-10T18:17:32.590Z,6.60
2019-05-10T18:20:03.790Z,6.10
2019-05-10T18:22:42.092Z,7.00
2019-05-10T18:25:02.836Z,6.80
2019-05-10T18:27:31.465Z,6.80
2019-05-10T18:30:00.045Z,6.30
2019-05-10T18:32:29.397Z,7.10
2019-05-10T18:34:58.819Z,6.30
2019-05-10T18:37:27.320Z,7.80
2019-05-10T18:39:55.861Z,8.07
2019-05-10T18:42:25.464Z,10.07
2019-05-10T18:44:54.475Z,8.03
2019-05-10T18:47:22.911Z,7.87
2019-05-10T18:49:51.471Z,7.07
2019-05-10T18:52:19.903Z,6.47
2019-05-10T18:54:48.563Z,6.23
2019-05-10T18:57:19.444Z,6.60
2019-05-10T18:59:47.423Z,9.13
2019-05-10T19:02:17.989Z,11.00
2019-05-10T19:04:52.100Z,13.27
2019-05-10T19:07:16.464Z,7.63
2019-05-10T19:09:44.981Z,7.60
2019-05-10T19:12:18.626Z,6.73
2019-05-10T19:14:43.724Z,7.57
2019-05-10T19:17:12.347Z,7.77
2019-05-10T19:19:42.311Z,7.77
2019-05-10T19:22:11.046Z,8.67
2019-05-10T19:24:39.606Z,8.27
2019-05-10T19:27:09.383Z,6.53
2019-05-10T19:29:38.885Z,8.23
2019-05-10T19:32:11.394Z,8.93
2019-05-10T19:34:38.250Z,8.03
2019-05-10T19:37:06.758Z,8.10
2019-05-10T19:39:35.250Z,8.30
2019-05-10T19:42:06.013Z,9.60
2019-05-10T19:44:34.791Z,9.10
2019-05-10T19:47:04.295Z,10.43
2019-05-10T19:49:32.761Z,11.17
2019-05-10T19:52:01.181Z,11.50
2019-05-10T19:54:29.623Z,12.63
2019-05-10T19:56:58.061Z,11.17
2019-05-10T19:59:26.523Z,11.07
2019-05-10T20:01:54.938Z,11.87
2019-05-10T20:04:23.389Z,11.33
2019-05-10T20:06:52.005Z,10.43
2019-05-10T20:09:20.545Z,9.90
2019-05-10T20:11:50.956Z,9.63
2019-05-10T20:14:19.490Z,10.60
2019-05-10T20:16:52.959Z,9.87
2019-05-10T20:19:18.169Z,9.43
2019-05-10T20:21:46.620Z,9.57
2019-05-10T20:24:15.106Z,9.27
2019-05-10T20:26:43.653Z,9.60
2019-05-10T20:29:12.251Z,9.00
2019-05-10T20:31:40.766Z,8.37
2019-05-10T20:34:09.286Z,8.37
2019-05-10T20:36:37.758Z,9.03
2019-05-10T20:39:07.542Z,7.63
2019-05-10T20:41:35.985Z,8.57
2019-05-10T20:44:04.441Z,9.53
2019-05-10T20:46:32.935Z,8.67
2019-05-10T20:49:01.383Z,8.50
2019-05-10T20:51:29.951Z,7.70
2019-05-10T20:53:58.419Z,9.60
2019-05-10T20:56:26.921Z,9.73
2019-05-10T20:58:55.377Z,9.67
2019-05-10T21:01:23.975Z,11.20
2019-05-10T21:03:52.426Z,9.97
2019-05-10T21:06:20.950Z,9.47
2019-05-10T21:08:49.449Z,10.50
2019-05-10T21:11:17.989Z,10.77
2019-05-10T21:13:46.424Z,12.03
2019-05-10T21:16:14.852Z,10.43
2019-05-10T21:18:43.286Z,8.93
2019-05-10T21:21:11.763Z,9.30
2019-05-10T21:23:40.210Z,10.70
2019-05-10T21:26:09.094Z,11.67
2019-05-10T21:28:37.535Z,11.17
2019-05-10T21:31:06.074Z,12.10
2019-05-10T21:33:34.541Z,11.43
2019-05-10T21:36:02.997Z,11.50
2019-05-10T21:38:33.378Z,11.40
2019-05-10T21:41:01.643Z,10.90
2019-05-10T21:43:30.407Z,10.73
2019-05-10T21:45:59.627Z,12.07
2019-05-10T21:48:28.591Z,10.70
2019-05-10T21:50:57.293Z,11.00
2019-05-10T21:53:25.924Z,11.00
2019-05-10T21:55:54.390Z,11.40
2019-05-10T21:58:22.881Z,10.13
2019-05-10T22:00:52.705Z,9.87
2019-05-10T22:03:21.325Z,10.17
2019-05-10T22:05:49.834Z,10.43
2019-05-10T22:08:18.264Z,9.53
2019-05-10T22:10:46.761Z,9.30
2019-05-10T22:13:15.324Z,9.90
2019-05-10T22:15:43.811Z,8.97
2019-05-10T22:18:12.285Z,11.60
2019-05-10T22:20:40.733Z,9.13
2019-05-10T22:23:09.193Z,10.90
2019-05-10T22:25:37.643Z,10.97
2019-05-10T22:28:06.129Z,9.80
2019-05-10T22:30:34.579Z,11.60
2019-05-10T22:33:03.089Z,9.40
2019-05-10T22:35:31.619Z,11.10
2019-05-10T22:38:00.068Z,10.83
2019-05-10T22:40:28.502Z,9.60
2019-05-10T22:42:56.945Z,11.10
2019-05-10T22:45:25.372Z,9.90
2019-05-10T22:47:53.816Z,9.30
2019-05-10T22:50:22.229Z,17.00
2019-05-10T22:52:50.681Z,22.20
2019-05-10T22:55:19.124Z,13.50
2019-05-10T22:57:47.567Z,11.33
2019-05-10T23:00:16.825Z,10.73
2019-05-10T23:02:46.931Z,11.13
2019-05-10T23:05:15.367Z,11.60
2019-05-10T23:07:43.865Z,10.87
2019-05-10T23:10:12.474Z,10.57
2019-05-10T23:12:40.984Z,12.00
2019-05-10T23:15:09.869Z,12.73
2019-05-10T23:17:38.294Z,13.73
2019-05-10T23:20:06.841Z,13.23
2019-05-10T23:22:35.304Z,13.70
2019-05-10T23:25:05.487Z,15.10
2019-05-10T23:27:33.895Z,13.30
2019-05-10T23:30:02.358Z,14.07
2019-05-10T23:32:30.809Z,13.90
2019-05-10T23:34:59.261Z,15.43
2019-05-10T23:37:27.763Z,14.80
2019-05-10T23:39:56.213Z,14.20
2019-05-10T23:42:24.732Z,17.23
2019-05-10T23:44:53.220Z,17.63
2019-05-10T23:47:21.689Z,16.17
2019-05-10T23:49:50.246Z,15.93
2019-05-10T23:52:18.760Z,17.03
2019-05-10T23:54:47.192Z,18.63
2019-05-10T23:57:16.079Z,16.40
2019-05-10T23:59:44.522Z,17.47
